Main page
METAR-TAF:

METAR-TAF

Airports :

Athens International Airport

Athens, Greece

latitude: 37-56N, longitude: 023-56E, elevation: 94 m

Current weather observation

The report was made 19 minutes ago, at 02:50 UTC
Calm wind
Temperature 19°C
Humidity 88%
Pressure 1007 hPa
Visibility 10 km or more
Few clouds at a height of 3000 ft

METAR: LGAV 150250Z 00000KT 9999 FEW030 19/17 Q1007 NOSIG

Time: 06:09 (03:09 UTC)

Forecast

The report was made 4 hours and 9 minutes ago, at 23:00 UTC
Forecast valid from 15 at 00 UTC to 15 at 24 UTC
Wind 5 kt from variable directions
Visibility 10 km or more
Few clouds at a height of 3000 ft
Becoming
from 15 at 10 UTC to 15 at 12 UTC
Wind 10 kt from the South/Southeast
Temporary
from 15 at 08 UTC to 15 at 14 UTC
Scattered clouds at a height of 2500 ft

TAF: LGAV 142300Z 1500/1524 VRB05KT 9999 FEW030 BECMG 1510/1512 15010KT TEMPO 1508/1514 SCT025

Weather observations and forecasts of more than 4000 airports (METAR and TAF reports).

The available stations are represented by yellow and red dots on the map.

Hover mouse over dot to see the name of the station.

Then click to see weather observations and forecasts.

To change the map : click on the green buttons with a black cross to zoom in, on the green button with a dash to zoom out, or on the green arrows for adjacent maps.


METAR-TAF: